sensor_id;sensor_type;location;lat;lon;timestamp;P1;durP1;ratioP1;P2;durP2;ratioP2
31037;SDS011;17702;47.590;7.666;2023-06-26T00:00:48;8.45;;;7.18;;
31037;SDS011;17702;47.590;7.666;2023-06-26T00:03:14;8.82;;;7.85;;
31037;SDS011;17702;47.590;7.666;2023-06-26T00:05:40;7.68;;;7.07;;
31037;SDS011;17702;47.590;7.666;2023-06-26T00:08:09;13.52;;;7.40;;
31037;SDS011;17702;47.590;7.666;2023-06-26T00:10:35;15.35;;;7.63;;
31037;SDS011;17702;47.590;7.666;2023-06-26T00:13:01;10.18;;;7.63;;
31037;SDS011;17702;47.590;7.666;2023-06-26T00:15:27;7.90;;;7.10;;
31037;SDS011;17702;47.590;7.666;2023-06-26T00:17:56;8.07;;;7.20;;
31037;SDS011;17702;47.590;7.666;2023-06-26T00:20:22;8.60;;;7.65;;
31037;SDS011;17702;47.590;7.666;2023-06-26T00:22:48;8.38;;;7.45;;
31037;SDS011;17702;47.590;7.666;2023-06-26T00:25:15;9.07;;;7.55;;
31037;SDS011;17702;47.590;7.666;2023-06-26T00:27:41;9.55;;;7.80;;
31037;SDS011;17702;47.590;7.666;2023-06-26T00:30:07;12.57;;;9.63;;
31037;SDS011;17702;47.590;7.666;2023-06-26T00:32:33;10.57;;;9.15;;
31037;SDS011;17702;47.590;7.666;2023-06-26T00:34:59;10.45;;;9.45;;
31037;SDS011;17702;47.590;7.666;2023-06-26T00:37:24;7.82;;;7.07;;
31037;SDS011;17702;47.590;7.666;2023-06-26T00:39:50;11.13;;;8.00;;
31037;SDS011;17702;47.590;7.666;2023-06-26T00:42:16;9.40;;;7.78;;
31037;SDS011;17702;47.590;7.666;2023-06-26T00:44:41;10.13;;;7.20;;
31037;SDS011;17702;47.590;7.666;2023-06-26T00:47:07;8.88;;;7.95;;
31037;SDS011;17702;47.590;7.666;2023-06-26T00:49:39;8.05;;;6.72;;
31037;SDS011;17702;47.590;7.666;2023-06-26T00:52:05;12.13;;;7.28;;
31037;SDS011;17702;47.590;7.666;2023-06-26T00:54:31;8.25;;;7.40;;
31037;SDS011;17702;47.590;7.666;2023-06-26T00:56:57;8.80;;;7.88;;
31037;SDS011;17702;47.590;7.666;2023-06-26T00:59:23;10.73;;;7.00;;
31037;SDS011;17702;47.590;7.666;2023-06-26T01:01:48;10.32;;;7.60;;
31037;SDS011;17702;47.590;7.666;2023-06-26T01:04:14;10.98;;;7.40;;
31037;SDS011;17702;47.590;7.666;2023-06-26T01:06:46;9.15;;;7.15;;
31037;SDS011;17702;47.590;7.666;2023-06-26T01:09:19;8.32;;;7.15;;
31037;SDS011;17702;47.590;7.666;2023-06-26T01:11:47;9.57;;;7.25;;
31037;SDS011;17702;47.590;7.666;2023-06-26T01:14:12;9.68;;;7.35;;
31037;SDS011;17702;47.590;7.666;2023-06-26T01:16:38;9.75;;;6.82;;
31037;SDS011;17702;47.590;7.666;2023-06-26T01:19:08;10.27;;;7.30;;
31037;SDS011;17702;47.590;7.666;2023-06-26T01:21:37;8.45;;;7.50;;
31037;SDS011;17702;47.590;7.666;2023-06-26T01:24:10;12.07;;;7.13;;
31037;SDS011;17702;47.590;7.666;2023-06-26T01:26:45;10.48;;;6.63;;
31037;SDS011;17702;47.590;7.666;2023-06-26T01:29:13;13.35;;;7.60;;
31037;SDS011;17702;47.590;7.666;2023-06-26T01:31:41;9.85;;;7.80;;
31037;SDS011;17702;47.590;7.666;2023-06-26T01:34:09;10.52;;;7.53;;
31037;SDS011;17702;47.590;7.666;2023-06-26T01:36:35;10.52;;;7.70;;
31037;SDS011;17702;47.590;7.666;2023-06-26T01:39:02;10.77;;;7.50;;
31037;SDS011;17702;47.590;7.666;2023-06-26T01:41:27;7.97;;;7.20;;
31037;SDS011;17702;47.590;7.666;2023-06-26T01:46:23;10.40;;;7.57;;
31037;SDS011;17702;47.590;7.666;2023-06-26T01:51:26;7.72;;;7.03;;
31037;SDS011;17702;47.590;7.666;2023-06-26T01:53:55;8.82;;;7.15;;
31037;SDS011;17702;47.590;7.666;2023-06-26T01:56:23;9.13;;;7.68;;
31037;SDS011;17702;47.590;7.666;2023-06-26T01:58:49;11.75;;;7.63;;
31037;SDS011;17702;47.590;7.666;2023-06-26T02:01:19;8.95;;;7.43;;
31037;SDS011;17702;47.590;7.666;2023-06-26T02:03:45;10.25;;;7.50;;
31037;SDS011;17702;47.590;7.666;2023-06-26T02:06:11;10.88;;;7.63;;
31037;SDS011;17702;47.590;7.666;2023-06-26T02:08:36;10.70;;;7.82;;
31037;SDS011;17702;47.590;7.666;2023-06-26T02:11:02;9.40;;;7.35;;
31037;SDS011;17702;47.590;7.666;2023-06-26T02:13:27;13.77;;;8.55;;
31037;SDS011;17702;47.590;7.666;2023-06-26T02:15:53;8.25;;;7.45;;
31037;SDS011;17702;47.590;7.666;2023-06-26T02:18:19;7.95;;;7.25;;
31037;SDS011;17702;47.590;7.666;2023-06-26T02:20:47;10.05;;;7.57;;
31037;SDS011;17702;47.590;7.666;2023-06-26T02:23:13;8.60;;;6.85;;
31037;SDS011;17702;47.590;7.666;2023-06-26T02:25:39;12.10;;;6.95;;
31037;SDS011;17702;47.590;7.666;2023-06-26T02:28:04;9.15;;;8.05;;
31037;SDS011;17702;47.590;7.666;2023-06-26T02:30:30;15.75;;;6.88;;
31037;SDS011;17702;47.590;7.666;2023-06-26T02:32:56;12.40;;;7.88;;
31037;SDS011;17702;47.590;7.666;2023-06-26T02:35:21;15.18;;;7.38;;
31037;SDS011;17702;47.590;7.666;2023-06-26T02:37:47;10.23;;;7.63;;
31037;SDS011;17702;47.590;7.666;2023-06-26T02:40:12;11.30;;;7.57;;
31037;SDS011;17702;47.590;7.666;2023-06-26T02:42:38;17.35;;;7.68;;
31037;SDS011;17702;47.590;7.666;2023-06-26T02:45:04;9.82;;;7.82;;
31037;SDS011;17702;47.590;7.666;2023-06-26T02:47:30;8.63;;;7.38;;
31037;SDS011;17702;47.590;7.666;2023-06-26T02:49:55;9.85;;;7.93;;
31037;SDS011;17702;47.590;7.666;2023-06-26T02:52:21;10.05;;;8.23;;
31037;SDS011;17702;47.590;7.666;2023-06-26T02:54:46;10.27;;;7.47;;
31037;SDS011;17702;47.590;7.666;2023-06-26T02:57:12;9.02;;;8.05;;
31037;SDS011;17702;47.590;7.666;2023-06-26T02:59:39;12.85;;;8.05;;
31037;SDS011;17702;47.590;7.666;2023-06-26T03:02:05;12.85;;;7.50;;
31037;SDS011;17702;47.590;7.666;2023-06-26T03:04:31;10.80;;;7.90;;
31037;SDS011;17702;47.590;7.666;2023-06-26T03:06:56;11.80;;;7.80;;
31037;SDS011;17702;47.590;7.666;2023-06-26T03:09:22;10.43;;;7.65;;
31037;SDS011;17702;47.590;7.666;2023-06-26T03:11:48;12.52;;;8.00;;
31037;SDS011;17702;47.590;7.666;2023-06-26T03:14:13;8.32;;;7.50;;
31037;SDS011;17702;47.590;7.666;2023-06-26T03:16:40;10.18;;;7.97;;
31037;SDS011;17702;47.590;7.666;2023-06-26T03:19:05;11.13;;;7.60;;
31037;SDS011;17702;47.590;7.666;2023-06-26T03:21:32;11.13;;;7.85;;
31037;SDS011;17702;47.590;7.666;2023-06-26T03:23:58;9.60;;;7.85;;
31037;SDS011;17702;47.590;7.666;2023-06-26T03:26:23;15.93;;;7.65;;
31037;SDS011;17702;47.590;7.666;2023-06-26T03:28:52;9.32;;;7.85;;
31037;SDS011;17702;47.590;7.666;2023-06-26T03:31:18;9.55;;;7.05;;
31037;SDS011;17702;47.590;7.666;2023-06-26T03:33:44;9.63;;;7.15;;
31037;SDS011;17702;47.590;7.666;2023-06-26T03:36:10;9.35;;;7.20;;
31037;SDS011;17702;47.590;7.666;2023-06-26T03:38:36;8.32;;;7.28;;
31037;SDS011;17702;47.590;7.666;2023-06-26T03:41:01;11.65;;;7.68;;
31037;SDS011;17702;47.590;7.666;2023-06-26T03:43:27;11.40;;;7.78;;
31037;SDS011;17702;47.590;7.666;2023-06-26T03:45:53;9.75;;;8.10;;
31037;SDS011;17702;47.590;7.666;2023-06-26T03:48:18;11.55;;;8.13;;
31037;SDS011;17702;47.590;7.666;2023-06-26T03:50:44;10.43;;;7.80;;
31037;SDS011;17702;47.590;7.666;2023-06-26T03:53:10;13.82;;;8.20;;
31037;SDS011;17702;47.590;7.666;2023-06-26T03:55:36;10.23;;;7.70;;
31037;SDS011;17702;47.590;7.666;2023-06-26T03:58:03;8.60;;;7.45;;
31037;SDS011;17702;47.590;7.666;2023-06-26T04:00:29;11.98;;;7.70;;
31037;SDS011;17702;47.590;7.666;2023-06-26T04:02:55;11.60;;;8.40;;
31037;SDS011;17702;47.590;7.666;2023-06-26T04:05:20;10.98;;;8.20;;
31037;SDS011;17702;47.590;7.666;2023-06-26T04:07:49;11.45;;;7.78;;
31037;SDS011;17702;47.590;7.666;2023-06-26T04:10:18;9.80;;;7.63;;
31037;SDS011;17702;47.590;7.666;2023-06-26T04:12:45;8.73;;;7.72;;
31037;SDS011;17702;47.590;7.666;2023-06-26T04:15:11;8.50;;;7.70;;
31037;SDS011;17702;47.590;7.666;2023-06-26T04:17:36;12.35;;;8.18;;
31037;SDS011;17702;47.590;7.666;2023-06-26T04:20:02;9.60;;;7.63;;
31037;SDS011;17702;47.590;7.666;2023-06-26T04:22:31;10.30;;;7.88;;
31037;SDS011;17702;47.590;7.666;2023-06-26T04:24:57;9.05;;;8.00;;
31037;SDS011;17702;47.590;7.666;2023-06-26T04:27:23;8.65;;;7.63;;
31037;SDS011;17702;47.590;7.666;2023-06-26T04:29:48;8.60;;;7.70;;
31037;SDS011;17702;47.590;7.666;2023-06-26T04:32:14;9.10;;;8.20;;
31037;SDS011;17702;47.590;7.666;2023-06-26T04:34:39;11.15;;;7.60;;
31037;SDS011;17702;47.590;7.666;2023-06-26T04:37:08;13.13;;;8.13;;
31037;SDS011;17702;47.590;7.666;2023-06-26T04:39:34;15.05;;;8.52;;
31037;SDS011;17702;47.590;7.666;2023-06-26T04:42:02;8.73;;;7.82;;
31037;SDS011;17702;47.590;7.666;2023-06-26T04:44:28;10.10;;;8.38;;
31037;SDS011;17702;47.590;7.666;2023-06-26T04:46:53;8.93;;;8.15;;
31037;SDS011;17702;47.590;7.666;2023-06-26T04:49:19;8.60;;;7.70;;
31037;SDS011;17702;47.590;7.666;2023-06-26T04:51:45;8.93;;;8.00;;
31037;SDS011;17702;47.590;7.666;2023-06-26T04:54:11;8.90;;;8.00;;
31037;SDS011;17702;47.590;7.666;2023-06-26T04:56:36;8.68;;;7.80;;
31037;SDS011;17702;47.590;7.666;2023-06-26T04:59:04;10.95;;;8.13;;
31037;SDS011;17702;47.590;7.666;2023-06-26T05:01:30;10.57;;;7.53;;
31037;SDS011;17702;47.590;7.666;2023-06-26T05:03:57;8.70;;;7.80;;
31037;SDS011;17702;47.590;7.666;2023-06-26T05:06:23;8.55;;;7.75;;
31037;SDS011;17702;47.590;7.666;2023-06-26T05:08:49;9.98;;;8.40;;
31037;SDS011;17702;47.590;7.666;2023-06-26T05:11:14;9.05;;;8.20;;
31037;SDS011;17702;47.590;7.666;2023-06-26T05:13:41;8.88;;;8.07;;
31037;SDS011;17702;47.590;7.666;2023-06-26T05:16:07;9.68;;;7.97;;
31037;SDS011;17702;47.590;7.666;2023-06-26T05:18:34;9.20;;;8.15;;
31037;SDS011;17702;47.590;7.666;2023-06-26T05:21:00;9.40;;;8.43;;
31037;SDS011;17702;47.590;7.666;2023-06-26T05:23:26;9.90;;;8.23;;
31037;SDS011;17702;47.590;7.666;2023-06-26T05:25:55;10.85;;;7.40;;
31037;SDS011;17702;47.590;7.666;2023-06-26T05:28:21;10.48;;;8.75;;
31037;SDS011;17702;47.590;7.666;2023-06-26T05:30:49;8.90;;;7.47;;
31037;SDS011;17702;47.590;7.666;2023-06-26T05:33:18;9.80;;;8.27;;
31037;SDS011;17702;47.590;7.666;2023-06-26T05:35:47;10.95;;;8.68;;
31037;SDS011;17702;47.590;7.666;2023-06-26T05:38:13;12.55;;;8.38;;
31037;SDS011;17702;47.590;7.666;2023-06-26T05:40:40;9.35;;;7.95;;
31037;SDS011;17702;47.590;7.666;2023-06-26T05:43:06;10.15;;;8.18;;
31037;SDS011;17702;47.590;7.666;2023-06-26T05:45:32;10.40;;;7.97;;
31037;SDS011;17702;47.590;7.666;2023-06-26T05:47:58;26.00;;;8.68;;
31037;SDS011;17702;47.590;7.666;2023-06-26T05:50:24;16.38;;;7.82;;
31037;SDS011;17702;47.590;7.666;2023-06-26T05:52:50;15.65;;;7.70;;
31037;SDS011;17702;47.590;7.666;2023-06-26T05:55:16;8.60;;;7.85;;
31037;SDS011;17702;47.590;7.666;2023-06-26T05:57:42;12.02;;;8.18;;
31037;SDS011;17702;47.590;7.666;2023-06-26T06:00:10;8.80;;;7.90;;
31037;SDS011;17702;47.590;7.666;2023-06-26T06:02:37;8.68;;;7.88;;
31037;SDS011;17702;47.590;7.666;2023-06-26T06:05:03;9.75;;;7.68;;
31037;SDS011;17702;47.590;7.666;2023-06-26T06:07:29;9.55;;;8.05;;
31037;SDS011;17702;47.590;7.666;2023-06-26T06:09:56;8.10;;;7.32;;
31037;SDS011;17702;47.590;7.666;2023-06-26T06:12:21;13.13;;;8.20;;
31037;SDS011;17702;47.590;7.666;2023-06-26T06:14:47;8.50;;;7.70;;
31037;SDS011;17702;47.590;7.666;2023-06-26T06:17:12;8.80;;;7.90;;
31037;SDS011;17702;47.590;7.666;2023-06-26T06:19:38;9.77;;;7.65;;
31037;SDS011;17702;47.590;7.666;2023-06-26T06:22:04;9.00;;;8.10;;
31037;SDS011;17702;47.590;7.666;2023-06-26T06:24:29;10.23;;;7.85;;
31037;SDS011;17702;47.590;7.666;2023-06-26T06:26:55;8.27;;;7.43;;
31037;SDS011;17702;47.590;7.666;2023-06-26T06:29:20;8.75;;;7.85;;
31037;SDS011;17702;47.590;7.666;2023-06-26T06:31:46;8.63;;;6.95;;
31037;SDS011;17702;47.590;7.666;2023-06-26T06:34:11;8.38;;;7.50;;
31037;SDS011;17702;47.590;7.666;2023-06-26T06:36:38;11.60;;;7.93;;
31037;SDS011;17702;47.590;7.666;2023-06-26T06:39:03;12.43;;;8.38;;
31037;SDS011;17702;47.590;7.666;2023-06-26T06:41:29;13.57;;;8.13;;
31037;SDS011;17702;47.590;7.666;2023-06-26T06:43:54;7.85;;;7.13;;
31037;SDS011;17702;47.590;7.666;2023-06-26T06:46:20;8.80;;;8.00;;
31037;SDS011;17702;47.590;7.666;2023-06-26T06:48:46;12.60;;;7.95;;
31037;SDS011;17702;47.590;7.666;2023-06-26T06:51:12;8.63;;;7.78;;
31037;SDS011;17702;47.590;7.666;2023-06-26T06:53:37;13.73;;;8.05;;
31037;SDS011;17702;47.590;7.666;2023-06-26T06:56:03;9.40;;;8.32;;
31037;SDS011;17702;47.590;7.666;2023-06-26T06:58:29;10.73;;;8.43;;
31037;SDS011;17702;47.590;7.666;2023-06-26T07:00:58;15.82;;;14.13;;
31037;SDS011;17702;47.590;7.666;2023-06-26T07:03:24;25.38;;;21.10;;
31037;SDS011;17702;47.590;7.666;2023-06-26T07:05:50;21.30;;;19.30;;
31037;SDS011;17702;47.590;7.666;2023-06-26T07:08:15;12.40;;;7.85;;
31037;SDS011;17702;47.590;7.666;2023-06-26T07:10:41;15.63;;;12.60;;
31037;SDS011;17702;47.590;7.666;2023-06-26T07:13:07;8.80;;;7.90;;
31037;SDS011;17702;47.590;7.666;2023-06-26T07:15:32;8.05;;;7.35;;
31037;SDS011;17702;47.590;7.666;2023-06-26T07:17:58;8.20;;;7.32;;
31037;SDS011;17702;47.590;7.666;2023-06-26T07:20:23;8.80;;;7.45;;
31037;SDS011;17702;47.590;7.666;2023-06-26T07:22:49;8.27;;;6.93;;
31037;SDS011;17702;47.590;7.666;2023-06-26T07:25:15;7.18;;;6.30;;
31037;SDS011;17702;47.590;7.666;2023-06-26T07:27:41;8.88;;;8.07;;
31037;SDS011;17702;47.590;7.666;2023-06-26T07:30:07;10.43;;;7.05;;
31037;SDS011;17702;47.590;7.666;2023-06-26T07:32:34;9.05;;;6.95;;
31037;SDS011;17702;47.590;7.666;2023-06-26T07:35:00;8.20;;;7.53;;
31037;SDS011;17702;47.590;7.666;2023-06-26T07:37:25;7.25;;;6.63;;
31037;SDS011;17702;47.590;7.666;2023-06-26T07:39:51;11.55;;;7.60;;
31037;SDS011;17702;47.590;7.666;2023-06-26T07:42:17;8.02;;;7.22;;
31037;SDS011;17702;47.590;7.666;2023-06-26T07:44:43;11.38;;;9.25;;
31037;SDS011;17702;47.590;7.666;2023-06-26T07:47:08;13.43;;;11.10;;
31037;SDS011;17702;47.590;7.666;2023-06-26T07:49:34;9.13;;;7.20;;
31037;SDS011;17702;47.590;7.666;2023-06-26T07:52:00;8.75;;;8.02;;
31037;SDS011;17702;47.590;7.666;2023-06-26T07:54:26;8.07;;;7.25;;
31037;SDS011;17702;47.590;7.666;2023-06-26T07:59:28;7.53;;;6.93;;
31037;SDS011;17702;47.590;7.666;2023-06-26T08:01:55;9.57;;;8.00;;
31037;SDS011;17702;47.590;7.666;2023-06-26T08:04:23;11.90;;;8.73;;
31037;SDS011;17702;47.590;7.666;2023-06-26T08:06:52;8.40;;;7.60;;
31037;SDS011;17702;47.590;7.666;2023-06-26T08:09:19;10.70;;;7.70;;
31037;SDS011;17702;47.590;7.666;2023-06-26T08:11:46;9.27;;;8.27;;
31037;SDS011;17702;47.590;7.666;2023-06-26T08:14:12;10.63;;;8.27;;
31037;SDS011;17702;47.590;7.666;2023-06-26T08:16:39;8.93;;;8.02;;
31037;SDS011;17702;47.590;7.666;2023-06-26T08:19:08;7.65;;;6.95;;
31037;SDS011;17702;47.590;7.666;2023-06-26T08:21:34;12.30;;;7.05;;
31037;SDS011;17702;47.590;7.666;2023-06-26T08:24:00;9.93;;;7.53;;
31037;SDS011;17702;47.590;7.666;2023-06-26T08:26:26;11.23;;;8.38;;
31037;SDS011;17702;47.590;7.666;2023-06-26T08:28:51;14.02;;;7.50;;
31037;SDS011;17702;47.590;7.666;2023-06-26T08:31:17;7.72;;;7.03;;
31037;SDS011;17702;47.590;7.666;2023-06-26T08:33:43;18.60;;;7.80;;
31037;SDS011;17702;47.590;7.666;2023-06-26T08:36:08;9.88;;;7.70;;
31037;SDS011;17702;47.590;7.666;2023-06-26T08:38:34;9.57;;;6.78;;
31037;SDS011;17702;47.590;7.666;2023-06-26T08:41:00;9.20;;;8.15;;
31037;SDS011;17702;47.590;7.666;2023-06-26T08:43:25;10.45;;;7.70;;
31037;SDS011;17702;47.590;7.666;2023-06-26T08:45:52;10.27;;;7.85;;
31037;SDS011;17702;47.590;7.666;2023-06-26T08:48:18;9.10;;;7.65;;
31037;SDS011;17702;47.590;7.666;2023-06-26T08:50:45;11.43;;;10.23;;
31037;SDS011;17702;47.590;7.666;2023-06-26T08:53:19;10.68;;;8.05;;
31037;SDS011;17702;47.590;7.666;2023-06-26T08:56:05;17.85;;;9.18;;
31037;SDS011;17702;47.590;7.666;2023-06-26T08:58:33;11.85;;;7.70;;
31037;SDS011;17702;47.590;7.666;2023-06-26T09:01:01;10.77;;;7.50;;
31037;SDS011;17702;47.590;7.666;2023-06-26T09:03:29;8.93;;;7.18;;
31037;SDS011;17702;47.590;7.666;2023-06-26T09:05:55;16.05;;;7.28;;
31037;SDS011;17702;47.590;7.666;2023-06-26T09:08:21;10.73;;;8.38;;
31037;SDS011;17702;47.590;7.666;2023-06-26T09:10:46;7.97;;;7.30;;
31037;SDS011;17702;47.590;7.666;2023-06-26T09:13:12;8.20;;;7.50;;
31037;SDS011;17702;47.590;7.666;2023-06-26T09:15:38;6.93;;;6.40;;
31037;SDS011;17702;47.590;7.666;2023-06-26T09:18:07;7.95;;;7.13;;
31037;SDS011;17702;47.590;7.666;2023-06-26T09:20:33;15.27;;;7.22;;
31037;SDS011;17702;47.590;7.666;2023-06-26T09:22:58;13.15;;;8.20;;
31037;SDS011;17702;47.590;7.666;2023-06-26T09:25:25;8.18;;;7.40;;
31037;SDS011;17702;47.590;7.666;2023-06-26T09:27:51;9.70;;;7.85;;
31037;SDS011;17702;47.590;7.666;2023-06-26T09:30:18;15.50;;;8.07;;
31037;SDS011;17702;47.590;7.666;2023-06-26T09:32:44;11.77;;;7.55;;
31037;SDS011;17702;47.590;7.666;2023-06-26T09:35:10;7.80;;;7.20;;
31037;SDS011;17702;47.590;7.666;2023-06-26T09:37:36;8.98;;;7.15;;
31037;SDS011;17702;47.590;7.666;2023-06-26T09:40:02;11.25;;;7.97;;
31037;SDS011;17702;47.590;7.666;2023-06-26T09:42:29;8.68;;;7.78;;
31037;SDS011;17702;47.590;7.666;2023-06-26T09:44:55;10.93;;;7.55;;
31037;SDS011;17702;47.590;7.666;2023-06-26T09:47:21;12.63;;;8.18;;
31037;SDS011;17702;47.590;7.666;2023-06-26T09:49:47;10.00;;;8.05;;
31037;SDS011;17702;47.590;7.666;2023-06-26T09:52:14;7.97;;;7.38;;
31037;SDS011;17702;47.590;7.666;2023-06-26T09:54:44;9.77;;;7.93;;
31037;SDS011;17702;47.590;7.666;2023-06-26T09:57:11;14.57;;;7.60;;
31037;SDS011;17702;47.590;7.666;2023-06-26T09:59:40;11.80;;;7.50;;
31037;SDS011;17702;47.590;7.666;2023-06-26T10:02:07;9.23;;;7.60;;
31037;SDS011;17702;47.590;7.666;2023-06-26T10:04:34;8.05;;;7.32;;
31037;SDS011;17702;47.590;7.666;2023-06-26T10:07:06;10.18;;;7.47;;
31037;SDS011;17702;47.590;7.666;2023-06-26T10:09:36;10.73;;;7.57;;
31037;SDS011;17702;47.590;7.666;2023-06-26T10:14:33;12.50;;;7.95;;
31037;SDS011;17702;47.590;7.666;2023-06-26T10:17:06;7.97;;;7.00;;
31037;SDS011;17702;47.590;7.666;2023-06-26T10:19:39;7.30;;;6.78;;
31037;SDS011;17702;47.590;7.666;2023-06-26T10:22:06;8.05;;;7.35;;
31037;SDS011;17702;47.590;7.666;2023-06-26T10:24:33;8.20;;;7.47;;
31037;SDS011;17702;47.590;7.666;2023-06-26T10:27:08;8.55;;;7.20;;
31037;SDS011;17702;47.590;7.666;2023-06-26T10:29:49;7.07;;;6.45;;
31037;SDS011;17702;47.590;7.666;2023-06-26T10:32:19;8.23;;;7.45;;
31037;SDS011;17702;47.590;7.666;2023-06-26T10:34:48;8.30;;;6.47;;
31037;SDS011;17702;47.590;7.666;2023-06-26T10:37:14;7.78;;;7.07;;
31037;SDS011;17702;47.590;7.666;2023-06-26T10:39:47;9.35;;;6.75;;
31037;SDS011;17702;47.590;7.666;2023-06-26T10:42:19;8.88;;;7.25;;
31037;SDS011;17702;47.590;7.666;2023-06-26T10:44:53;7.45;;;6.75;;
31037;SDS011;17702;47.590;7.666;2023-06-26T10:47:29;7.93;;;7.32;;
31037;SDS011;17702;47.590;7.666;2023-06-26T10:49:55;8.45;;;6.72;;
31037;SDS011;17702;47.590;7.666;2023-06-26T10:52:21;7.10;;;6.53;;
31037;SDS011;17702;47.590;7.666;2023-06-26T10:54:48;8.35;;;6.82;;
31037;SDS011;17702;47.590;7.666;2023-06-26T10:57:13;8.27;;;7.40;;
31037;SDS011;17702;47.590;7.666;2023-06-26T10:59:49;10.43;;;6.57;;
31037;SDS011;17702;47.590;7.666;2023-06-26T11:02:50;8.85;;;8.05;;
31037;SDS011;17702;47.590;7.666;2023-06-26T11:05:25;8.82;;;6.15;;
31037;SDS011;17702;47.590;7.666;2023-06-26T11:13:17;7.40;;;6.10;;
31037;SDS011;17702;47.590;7.666;2023-06-26T11:15:44;6.50;;;6.00;;
31037;SDS011;17702;47.590;7.666;2023-06-26T11:18:14;6.67;;;6.23;;
31037;SDS011;17702;47.590;7.666;2023-06-26T11:20:40;6.45;;;5.88;;
31037;SDS011;17702;47.590;7.666;2023-06-26T11:23:07;7.40;;;6.20;;
31037;SDS011;17702;47.590;7.666;2023-06-26T11:25:34;7.45;;;6.35;;
31037;SDS011;17702;47.590;7.666;2023-06-26T11:28:01;7.90;;;5.85;;
31037;SDS011;17702;47.590;7.666;2023-06-26T11:30:28;9.88;;;6.82;;
31037;SDS011;17702;47.590;7.666;2023-06-26T11:33:01;6.63;;;6.05;;
31037;SDS011;17702;47.590;7.666;2023-06-26T11:35:28;6.97;;;6.32;;
31037;SDS011;17702;47.590;7.666;2023-06-26T11:37:57;7.47;;;6.78;;
31037;SDS011;17702;47.590;7.666;2023-06-26T11:40:25;6.28;;;5.68;;
31037;SDS011;17702;47.590;7.666;2023-06-26T11:42:54;6.57;;;5.95;;
31037;SDS011;17702;47.590;7.666;2023-06-26T11:45:20;7.03;;;6.00;;
31037;SDS011;17702;47.590;7.666;2023-06-26T11:47:46;6.65;;;6.00;;
31037;SDS011;17702;47.590;7.666;2023-06-26T11:50:15;8.18;;;5.60;;
31037;SDS011;17702;47.590;7.666;2023-06-26T11:52:44;8.10;;;6.20;;
31037;SDS011;17702;47.590;7.666;2023-06-26T11:55:10;6.35;;;5.78;;
31037;SDS011;17702;47.590;7.666;2023-06-26T11:57:37;6.75;;;6.13;;
31037;SDS011;17702;47.590;7.666;2023-06-26T12:00:15;6.90;;;5.80;;
31037;SDS011;17702;47.590;7.666;2023-06-26T12:02:42;8.13;;;5.88;;
31037;SDS011;17702;47.590;7.666;2023-06-26T12:05:11;6.15;;;5.65;;
31037;SDS011;17702;47.590;7.666;2023-06-26T12:07:39;8.77;;;5.88;;
31037;SDS011;17702;47.590;7.666;2023-06-26T12:10:06;8.43;;;5.88;;
31037;SDS011;17702;47.590;7.666;2023-06-26T12:12:33;7.07;;;6.50;;
31037;SDS011;17702;47.590;7.666;2023-06-26T12:14:59;9.57;;;5.70;;
31037;SDS011;17702;47.590;7.666;2023-06-26T12:17:25;6.53;;;5.90;;
31037;SDS011;17702;47.590;7.666;2023-06-26T12:19:51;6.57;;;5.35;;
31037;SDS011;17702;47.590;7.666;2023-06-26T12:22:17;8.30;;;5.60;;
31037;SDS011;17702;47.590;7.666;2023-06-26T12:24:43;7.68;;;5.88;;
31037;SDS011;17702;47.590;7.666;2023-06-26T12:27:10;5.72;;;5.18;;
31037;SDS011;17702;47.590;7.666;2023-06-26T12:29:38;6.07;;;5.57;;
31037;SDS011;17702;47.590;7.666;2023-06-26T12:32:07;13.20;;;5.40;;
31037;SDS011;17702;47.590;7.666;2023-06-26T12:34:34;8.07;;;4.97;;
31037;SDS011;17702;47.590;7.666;2023-06-26T12:37:02;5.72;;;4.97;;
31037;SDS011;17702;47.590;7.666;2023-06-26T12:39:45;5.35;;;4.95;;
31037;SDS011;17702;47.590;7.666;2023-06-26T12:42:19;5.25;;;4.85;;
31037;SDS011;17702;47.590;7.666;2023-06-26T12:44:47;6.43;;;4.60;;
31037;SDS011;17702;47.590;7.666;2023-06-26T12:47:14;4.63;;;4.32;;
31037;SDS011;17702;47.590;7.666;2023-06-26T12:49:49;7.70;;;4.82;;
31037;SDS011;17702;47.590;7.666;2023-06-26T12:52:16;5.22;;;4.82;;
31037;SDS011;17702;47.590;7.666;2023-06-26T12:54:45;5.25;;;4.45;;
31037;SDS011;17702;47.590;7.666;2023-06-26T12:57:12;5.03;;;4.35;;
31037;SDS011;17702;47.590;7.666;2023-06-26T12:59:39;7.00;;;4.85;;
31037;SDS011;17702;47.590;7.666;2023-06-26T13:02:05;7.80;;;4.63;;
31037;SDS011;17702;47.590;7.666;2023-06-26T13:04:32;4.78;;;4.00;;
31037;SDS011;17702;47.590;7.666;2023-06-26T13:06:57;4.90;;;4.47;;
31037;SDS011;17702;47.590;7.666;2023-06-26T13:09:23;4.68;;;4.20;;
31037;SDS011;17702;47.590;7.666;2023-06-26T13:11:50;5.43;;;4.93;;
31037;SDS011;17702;47.590;7.666;2023-06-26T13:14:16;7.88;;;4.82;;
31037;SDS011;17702;47.590;7.666;2023-06-26T13:16:42;3.72;;;3.42;;
31037;SDS011;17702;47.590;7.666;2023-06-26T13:19:07;4.30;;;3.90;;
31037;SDS011;17702;47.590;7.666;2023-06-26T13:21:33;7.88;;;4.80;;
31037;SDS011;17702;47.590;7.666;2023-06-26T13:23:59;4.35;;;3.85;;
31037;SDS011;17702;47.590;7.666;2023-06-26T13:26:25;3.95;;;3.75;;
31037;SDS011;17702;47.590;7.666;2023-06-26T13:28:53;4.63;;;4.22;;
31037;SDS011;17702;47.590;7.666;2023-06-26T13:31:19;5.57;;;3.90;;
31037;SDS011;17702;47.590;7.666;2023-06-26T13:33:45;7.93;;;3.85;;
31037;SDS011;17702;47.590;7.666;2023-06-26T13:36:13;3.88;;;3.67;;
31037;SDS011;17702;47.590;7.666;2023-06-26T13:38:39;3.58;;;3.38;;
31037;SDS011;17702;47.590;7.666;2023-06-26T13:41:05;5.68;;;3.72;;
31037;SDS011;17702;47.590;7.666;2023-06-26T13:43:30;4.00;;;3.70;;
31037;SDS011;17702;47.590;7.666;2023-06-26T13:45:56;4.15;;;3.55;;
31037;SDS011;17702;47.590;7.666;2023-06-26T13:48:22;4.25;;;3.85;;
31037;SDS011;17702;47.590;7.666;2023-06-26T13:50:49;4.05;;;3.58;;
31037;SDS011;17702;47.590;7.666;2023-06-26T13:53:15;3.80;;;3.60;;
31037;SDS011;17702;47.590;7.666;2023-06-26T13:55:41;4.70;;;4.00;;
31037;SDS011;17702;47.590;7.666;2023-06-26T13:58:07;6.03;;;3.90;;
31037;SDS011;17702;47.590;7.666;2023-06-26T14:00:34;4.10;;;3.53;;
31037;SDS011;17702;47.590;7.666;2023-06-26T14:03:01;5.72;;;3.28;;
31037;SDS011;17702;47.590;7.666;2023-06-26T14:05:28;4.03;;;3.60;;
31037;SDS011;17702;47.590;7.666;2023-06-26T14:07:54;3.90;;;3.60;;
31037;SDS011;17702;47.590;7.666;2023-06-26T14:10:23;3.80;;;3.50;;
31037;SDS011;17702;47.590;7.666;2023-06-26T14:12:49;4.38;;;3.50;;
31037;SDS011;17702;47.590;7.666;2023-06-26T14:15:14;5.40;;;3.50;;
31037;SDS011;17702;47.590;7.666;2023-06-26T14:17:40;4.97;;;3.65;;
31037;SDS011;17702;47.590;7.666;2023-06-26T14:20:09;3.78;;;3.40;;
31037;SDS011;17702;47.590;7.666;2023-06-26T14:22:41;3.72;;;3.42;;
31037;SDS011;17702;47.590;7.666;2023-06-26T14:25:07;5.13;;;3.67;;
31037;SDS011;17702;47.590;7.666;2023-06-26T14:27:34;5.28;;;4.05;;
31037;SDS011;17702;47.590;7.666;2023-06-26T14:30:02;5.40;;;3.80;;
31037;SDS011;17702;47.590;7.666;2023-06-26T14:32:28;4.38;;;3.67;;
31037;SDS011;17702;47.590;7.666;2023-06-26T14:34:54;4.53;;;4.07;;
31037;SDS011;17702;47.590;7.666;2023-06-26T14:37:21;5.90;;;3.22;;
31037;SDS011;17702;47.590;7.666;2023-06-26T14:39:46;4.38;;;3.97;;
31037;SDS011;17702;47.590;7.666;2023-06-26T14:42:12;6.18;;;3.95;;
31037;SDS011;17702;47.590;7.666;2023-06-26T14:44:37;4.40;;;3.70;;
31037;SDS011;17702;47.590;7.666;2023-06-26T14:47:03;3.55;;;3.35;;
31037;SDS011;17702;47.590;7.666;2023-06-26T14:49:29;5.25;;;3.17;;
31037;SDS011;17702;47.590;7.666;2023-06-26T14:51:55;4.15;;;3.75;;
31037;SDS011;17702;47.590;7.666;2023-06-26T14:54:20;5.78;;;3.70;;
31037;SDS011;17702;47.590;7.666;2023-06-26T14:56:46;4.95;;;3.80;;